Blake Denton — WDC7496 — position and weather

sailwx.info

Track history (hours):
 
Tides and Currents Weather Stations Pressure Air Temp Water Temp Dewpoint Dewpoint Depression Visibility Wind Speed Wind Dir Waves Ship Positions

Blake Denton

Owner: Marquette Transportation, Paducah, KY. More information available from US FCC via Universal Licensing System and Coast Guard Vessel Documentation Center.

Last reported at 2014-Sep-26 10:03 UTC. Time now 2014-Oct-01 18:21 UTC.
Position N 30°07' W 090°58'.

Length 52 m.

Type: Towing. MMSI: 367072210.

Date/timePositionNaut miles runAvg speedWind from/ knotsBaromVisibWave heightAir tempDewpointWater temp
2014-Sep-26 10:03N 30°07' W 090°58'2 3.5
2014-Sep-26 09:21N 30°08' W 090°55'4 4.3
2014-Sep-26 08:26N 30°04' W 090°54'0 0.0
2014-Sep-26 07:33N 30°04' W 090°54'0 0.0
2014-Sep-26 06:27N 30°04' W 090°54'0 0.0
2014-Sep-26 05:11N 30°04' W 090°54'0 0.0
2014-Sep-25 23:26N 30°04' W 090°54'0 0.0
2014-Sep-25 12:17N 30°04' W 090°54'0 0.0
2014-Sep-25 10:07N 30°04' W 090°54'0 0.3
2014-Sep-25 09:32N 30°04' W 090°54'6 5.6
2014-Sep-25 08:32N 29°59' W 090°50'6 5.7
2014-Sep-25 07:33N 30°01' W 090°43'4 4.1
2014-Sep-25 06:33N 30°03' W 090°39'0 0.0
2014-Sep-25 05:33N 30°03' W 090°39'1 0.9
2014-Sep-25 04:33N 30°03' W 090°38'3 3.4
2014-Sep-25 03:33N 30°03' W 090°34'7 6.8
2014-Sep-25 02:33N 29°60' W 090°27'8 7.6
2014-Sep-25 01:28N 29°57' W 090°19'4 2.0
2014-Sep-24 23:28N 29°58' W 090°15'12 1.2
2014-Sep-24 13:09N 30°02' W 090°28'0 0.0
2014-Sep-24 12:33N 30°02' W 090°28'0 0.3
2014-Sep-24 11:33N 30°02' W 090°28'6 6.5
2014-Sep-24 10:33N 30°03' W 090°36'2 2.3
2014-Sep-24 09:33N 30°03' W 090°38'0 0.0
2014-Sep-24 08:33N 30°03' W 090°38'0 0.0
2014-Sep-24 07:33N 30°03' W 090°38'0 0.0
2014-Sep-24 06:33N 30°03' W 090°38'0 0.0
2014-Sep-24 05:33N 30°03' W 090°38'0 0.0
2014-Sep-24 04:33N 30°03' W 090°38'0 0.1
2014-Sep-24 03:33N 30°02' W 090°38'0 0.0
2014-Sep-24 02:33N 30°02' W 090°38'0 0.0
2014-Sep-24 01:33N 30°02' W 090°38'0 0.0
2014-Sep-24 00:33N 30°02' W 090°38'0 0.1
2014-Sep-23 23:33N 30°03' W 090°38'11 1.0
2014-Sep-23 12:30N 30°04' W 090°51'0 0.0
2014-Sep-23 11:33N 30°04' W 090°51'0 0.0
2014-Sep-23 10:30N 30°04' W 090°51'0 0.0
2014-Sep-23 09:33N 30°04' W 090°51'0 0.0
2014-Sep-23 08:33N 30°04' W 090°51'0 0.0
2014-Sep-23 07:33N 30°04' W 090°51'0 0.0
2014-Sep-23 06:33N 30°04' W 090°51'0 0.0
2014-Sep-23 05:31N 30°04' W 090°51'0 0.0
2014-Sep-23 03:33N 30°04' W 090°51'0 0.0
2014-Sep-23 02:33N 30°04' W 090°51'0 0.0
2014-Sep-23 01:31N 30°04' W 090°51'0 0.0
2014-Sep-23 00:14N 30°04' W 090°51'  
Track history (hours):
 
Tides and Currents Weather Stations Pressure Air Temp Water Temp Dewpoint Dewpoint Depression Visibility Wind Speed Wind Dir Waves Ship Positions

Blake Denton

Owner: Marquette Transportation, Paducah, KY. More information available from US FCC via Universal Licensing System and Coast Guard Vessel Documentation Center.

Last reported at 2014-Sep-26 10:03 UTC. Time now 2014-Oct-01 18:21 UTC.
Position N 30°07' W 090°58'.

Length 52 m.

Type: Towing. MMSI: 367072210.

Date/timePositionNaut miles runAvg speedWind from/ knotsBaromVisibWave heightAir tempDewpointWater temp
2014-Sep-26 10:03N 30°07' W 090°58'2 3.5
2014-Sep-26 09:21N 30°08' W 090°55'4 4.3
2014-Sep-26 08:26N 30°04' W 090°54'0 0.0
2014-Sep-26 07:33N 30°04' W 090°54'0 0.0
2014-Sep-26 06:27N 30°04' W 090°54'0 0.0
2014-Sep-26 05:11N 30°04' W 090°54'0 0.0
2014-Sep-25 23:26N 30°04' W 090°54'0 0.0
2014-Sep-25 12:17N 30°04' W 090°54'0 0.0
2014-Sep-25 10:07N 30°04' W 090°54'0 0.3
2014-Sep-25 09:32N 30°04' W 090°54'6 5.6
2014-Sep-25 08:32N 29°59' W 090°50'6 5.7
2014-Sep-25 07:33N 30°01' W 090°43'4 4.1
2014-Sep-25 06:33N 30°03' W 090°39'0 0.0
2014-Sep-25 05:33N 30°03' W 090°39'1 0.9
2014-Sep-25 04:33N 30°03' W 090°38'3 3.4
2014-Sep-25 03:33N 30°03' W 090°34'7 6.8
2014-Sep-25 02:33N 29°60' W 090°27'8 7.6
2014-Sep-25 01:28N 29°57' W 090°19'4 2.0
2014-Sep-24 23:28N 29°58' W 090°15'12 1.2
2014-Sep-24 13:09N 30°02' W 090°28'0 0.0
2014-Sep-24 12:33N 30°02' W 090°28'0 0.3
2014-Sep-24 11:33N 30°02' W 090°28'6 6.5
2014-Sep-24 10:33N 30°03' W 090°36'2 2.3
2014-Sep-24 09:33N 30°03' W 090°38'0 0.0
2014-Sep-24 08:33N 30°03' W 090°38'0 0.0
2014-Sep-24 07:33N 30°03' W 090°38'0 0.0
2014-Sep-24 06:33N 30°03' W 090°38'0 0.0
2014-Sep-24 05:33N 30°03' W 090°38'0 0.0
2014-Sep-24 04:33N 30°03' W 090°38'0 0.1
2014-Sep-24 03:33N 30°02' W 090°38'0 0.0
2014-Sep-24 02:33N 30°02' W 090°38'0 0.0
2014-Sep-24 01:33N 30°02' W 090°38'0 0.0
2014-Sep-24 00:33N 30°02' W 090°38'0 0.1
2014-Sep-23 23:33N 30°03' W 090°38'11 1.0
2014-Sep-23 12:30N 30°04' W 090°51'0 0.0
2014-Sep-23 11:33N 30°04' W 090°51'0 0.0
2014-Sep-23 10:30N 30°04' W 090°51'0 0.0
2014-Sep-23 09:33N 30°04' W 090°51'0 0.0
2014-Sep-23 08:33N 30°04' W 090°51'0 0.0
2014-Sep-23 07:33N 30°04' W 090°51'0 0.0
2014-Sep-23 06:33N 30°04' W 090°51'0 0.0
2014-Sep-23 05:31N 30°04' W 090°51'0 0.0
2014-Sep-23 03:33N 30°04' W 090°51'0 0.0
2014-Sep-23 02:33N 30°04' W 090°51'0 0.0
2014-Sep-23 01:31N 30°04' W 090°51'0 0.0
2014-Sep-23 00:14N 30°04' W 090°51'  

Dump ship's entire track history